createdAt,value
2018-07-03T00:03:25.673Z,20.20
2018-07-03T00:08:20.319Z,20.20
2018-07-03T00:13:15.024Z,20.30
2018-07-03T00:18:09.644Z,20.10
2018-07-03T00:23:04.262Z,20.00
2018-07-03T00:27:58.866Z,20.00
2018-07-03T00:32:53.736Z,19.80
2018-07-03T00:37:48.347Z,19.90
2018-07-03T00:42:42.955Z,19.80
2018-07-03T00:47:37.541Z,19.70
2018-07-03T00:52:32.444Z,19.60
2018-07-03T01:07:15.652Z,19.50
2018-07-03T01:17:04.615Z,19.60
2018-07-03T01:21:59.233Z,19.70
2018-07-03T01:26:53.951Z,19.80
2018-07-03T01:31:48.562Z,19.40
2018-07-03T01:36:43.139Z,19.30
2018-07-03T01:41:37.772Z,19.30
2018-07-03T01:46:32.388Z,19.40
2018-07-03T01:51:27.257Z,19.20
2018-07-03T01:56:21.841Z,19.10
2018-07-03T02:01:16.657Z,19.20
2018-07-03T02:06:11.228Z,19.30
2018-07-03T02:11:05.832Z,19.30
2018-07-03T02:16:00.439Z,19.20
2018-07-03T02:20:55.044Z,19.00
2018-07-03T02:25:49.616Z,18.80
2018-07-03T02:30:44.215Z,18.60
2018-07-03T02:35:38.831Z,18.60
2018-07-03T02:40:33.456Z,18.50
2018-07-03T02:45:28.053Z,18.60
2018-07-03T02:50:22.607Z,18.50
2018-07-03T02:55:17.166Z,18.60
2018-07-03T03:00:12.068Z,18.70
2018-07-03T03:05:06.763Z,18.50
2018-07-03T03:10:01.372Z,18.40
2018-07-03T03:14:56.029Z,18.30
2018-07-03T03:19:50.607Z,18.30
2018-07-03T03:24:45.231Z,18.20
2018-07-03T03:29:39.949Z,18.10
2018-07-03T03:34:34.527Z,18.30
2018-07-03T03:39:29.135Z,18.20
2018-07-03T03:44:23.713Z,18.20
2018-07-03T03:49:18.348Z,18.00
2018-07-03T03:54:13.004Z,18.00
2018-07-03T04:04:01.926Z,18.40
2018-07-03T04:13:51.090Z,18.70
2018-07-03T04:18:45.686Z,18.60
2018-07-03T04:23:40.291Z,18.80
2018-07-03T04:28:35.144Z,18.80
2018-07-03T04:33:29.827Z,19.00
2018-07-03T04:38:24.428Z,19.10
2018-07-03T04:43:19.211Z,19.10
2018-07-03T04:48:13.909Z,19.00
2018-07-03T04:53:08.536Z,19.00
2018-07-03T04:58:03.696Z,19.10
2018-07-03T05:02:59.531Z,19.10
2018-07-03T05:07:54.274Z,19.20
2018-07-03T05:12:48.859Z,19.40
2018-07-03T05:17:43.437Z,19.50
2018-07-03T05:22:38.085Z,19.70
2018-07-03T05:27:32.711Z,19.90
2018-07-03T05:32:27.457Z,20.20
2018-07-03T05:37:22.045Z,20.20
2018-07-03T05:42:16.667Z,20.50
2018-07-03T05:47:11.255Z,20.60
2018-07-03T05:52:06.126Z,20.80
2018-07-03T05:57:00.740Z,21.30
2018-07-03T06:01:55.401Z,21.70
2018-07-03T06:06:50.046Z,21.40
2018-07-03T06:11:44.659Z,21.30
2018-07-03T06:16:39.256Z,21.10
2018-07-03T06:21:33.847Z,21.00
2018-07-03T06:26:28.501Z,20.80
2018-07-03T06:31:24.063Z,20.70
2018-07-03T06:36:18.656Z,20.90
2018-07-03T06:41:13.227Z,21.30
2018-07-03T06:46:07.832Z,21.70
2018-07-03T06:51:02.460Z,21.70
2018-07-03T06:55:57.088Z,21.60
2018-07-03T07:00:51.684Z,21.40
2018-07-03T07:05:46.283Z,21.20
2018-07-03T07:10:40.943Z,21.10
2018-07-03T07:15:35.610Z,20.90
2018-07-03T07:25:24.456Z,20.50
2018-07-03T07:30:19.073Z,20.40
2018-07-03T07:35:13.691Z,20.20
2018-07-03T07:40:08.316Z,20.10
2018-07-03T07:45:02.941Z,20.10
2018-07-03T07:49:57.613Z,20.00
2018-07-03T07:54:52.204Z,19.90
2018-07-03T07:59:46.772Z,19.70
2018-07-03T08:04:41.380Z,19.60
2018-07-03T08:09:35.936Z,19.50
2018-07-03T08:14:30.569Z,19.40
2018-07-03T08:19:25.156Z,19.30
2018-07-03T08:24:19.774Z,19.30
2018-07-03T08:29:14.327Z,19.30
2018-07-03T08:34:08.993Z,19.20
2018-07-03T08:39:03.892Z,19.10
2018-07-03T08:43:58.549Z,19.00
2018-07-03T08:48:53.163Z,18.80
2018-07-03T08:53:47.872Z,18.30
2018-07-03T08:58:42.491Z,18.10
2018-07-03T09:03:37.147Z,17.90
2018-07-03T09:08:31.791Z,17.80
2018-07-03T09:13:26.560Z,17.80
2018-07-03T09:18:21.481Z,17.70
2018-07-03T09:23:16.396Z,17.70
2018-07-03T09:28:11.152Z,17.60
2018-07-03T09:33:05.880Z,17.60
2018-07-03T09:38:00.519Z,17.60
2018-07-03T09:42:55.223Z,17.50
2018-07-03T09:47:49.831Z,17.50
2018-07-03T09:52:44.418Z,17.50
2018-07-03T09:57:39.054Z,17.50
2018-07-03T10:02:33.652Z,17.60
2018-07-03T10:07:28.249Z,17.60
2018-07-03T10:12:22.907Z,17.50
2018-07-03T10:17:17.540Z,17.60
2018-07-03T10:22:12.147Z,17.50
2018-07-03T10:27:06.791Z,17.60
2018-07-03T10:32:01.420Z,17.50
2018-07-03T10:36:56.018Z,17.60
2018-07-03T10:41:50.663Z,17.70
2018-07-03T10:46:45.295Z,17.70
2018-07-03T10:51:39.857Z,17.70
2018-07-03T10:56:34.463Z,17.80
2018-07-03T11:01:29.105Z,17.90
2018-07-03T11:06:23.721Z,18.10
2018-07-03T11:11:18.327Z,18.40
2018-07-03T11:16:12.976Z,18.60
2018-07-03T11:21:08.051Z,18.80
2018-07-03T11:26:02.700Z,19.20
2018-07-03T11:30:57.421Z,19.50
2018-07-03T11:35:52.053Z,19.70
2018-07-03T11:40:46.707Z,20.10
2018-07-03T11:45:41.335Z,20.50
2018-07-03T11:50:35.956Z,20.80
2018-07-03T11:55:30.592Z,21.10
2018-07-03T12:00:25.264Z,21.60
2018-07-03T12:05:19.868Z,21.70
2018-07-03T12:10:14.453Z,21.70
2018-07-03T12:15:09.104Z,21.70
2018-07-03T12:20:03.860Z,21.70
2018-07-03T12:24:58.456Z,21.70
2018-07-03T12:29:53.131Z,22.00
2018-07-03T12:34:47.699Z,22.10
2018-07-03T12:39:42.307Z,22.20
2018-07-03T12:44:37.067Z,22.90
2018-07-03T12:49:31.659Z,23.70
2018-07-03T12:54:26.232Z,24.00
2018-07-03T12:59:20.859Z,23.60
2018-07-03T13:04:15.450Z,23.20
2018-07-03T13:09:11.868Z,22.80
2018-07-03T13:14:06.763Z,23.10
2018-07-03T13:23:55.678Z,23.70
2018-07-03T13:28:50.364Z,23.60
2018-07-03T13:33:45.007Z,23.30
2018-07-03T13:38:39.619Z,23.10
2018-07-03T13:43:34.228Z,22.90
2018-07-03T13:48:28.924Z,22.90
2018-07-03T13:53:23.461Z,23.30
2018-07-03T13:58:18.095Z,23.90
2018-07-03T14:03:12.716Z,24.20
2018-07-03T14:08:07.412Z,24.10
2018-07-03T14:13:02.020Z,24.20
2018-07-03T14:17:56.993Z,24.10
2018-07-03T14:22:51.624Z,24.20
2018-07-03T14:27:46.239Z,24.30
2018-07-03T14:32:40.860Z,24.30
2018-07-03T14:37:35.533Z,24.30
2018-07-03T14:42:30.174Z,24.30
2018-07-03T14:47:24.743Z,24.30
2018-07-03T14:52:19.424Z,24.20
2018-07-03T14:57:14.031Z,24.20
2018-07-03T15:02:08.771Z,24.30
2018-07-03T15:07:03.331Z,24.30
2018-07-03T15:11:57.919Z,23.90
2018-07-03T15:16:52.530Z,24.10
2018-07-03T15:21:47.183Z,24.20
2018-07-03T15:26:42.545Z,24.40
2018-07-03T15:31:37.348Z,24.40
2018-07-03T15:36:32.002Z,24.30
2018-07-03T15:41:26.643Z,23.90
2018-07-03T15:46:21.263Z,23.60
2018-07-03T15:51:15.863Z,23.50
2018-07-03T15:56:10.507Z,23.50
2018-07-03T16:01:05.312Z,23.30
2018-07-03T16:09:17.088Z,23.40
2018-07-03T16:14:12.305Z,23.50
2018-07-03T16:19:12.162Z,23.10
2018-07-03T16:24:07.263Z,22.80
2018-07-03T16:33:57.108Z,22.40
2018-07-03T16:38:51.950Z,22.30
2018-07-03T16:43:46.504Z,22.30
2018-07-03T16:48:41.256Z,22.50
2018-07-03T16:53:35.820Z,22.50
2018-07-03T16:58:30.497Z,22.20
2018-07-03T17:03:25.132Z,22.20
2018-07-03T17:08:19.806Z,22.10
2018-07-03T17:13:14.415Z,22.00
2018-07-03T17:18:09.151Z,21.90
2018-07-03T17:23:03.804Z,22.10
2018-07-03T17:32:52.727Z,22.10
2018-07-03T17:37:47.353Z,21.90
2018-07-03T17:42:58.691Z,21.80
2018-07-03T17:47:53.340Z,21.80
2018-07-03T17:57:48.116Z,21.60
2018-07-03T18:02:42.995Z,21.50
2018-07-03T18:07:38.282Z,21.40
2018-07-03T18:12:32.896Z,21.40
2018-07-03T18:17:27.543Z,21.40
2018-07-03T18:22:22.184Z,21.40
2018-07-03T18:27:16.865Z,21.30
2018-07-03T18:32:11.485Z,21.30
2018-07-03T18:37:06.186Z,21.30
2018-07-03T18:42:00.819Z,21.20
2018-07-03T18:46:55.459Z,21.10
2018-07-03T18:51:50.122Z,21.10
2018-07-03T18:56:44.822Z,21.00
2018-07-03T19:01:39.492Z,21.00
2018-07-03T19:06:34.142Z,21.00
2018-07-03T19:11:28.795Z,21.00
2018-07-03T19:16:23.935Z,20.90
2018-07-03T19:21:18.722Z,20.80
2018-07-03T19:26:14.232Z,20.60
2018-07-03T19:31:08.921Z,20.50
2018-07-03T19:36:03.659Z,20.40
2018-07-03T19:40:58.244Z,20.20
2018-07-03T19:45:53.786Z,20.10
2018-07-03T19:50:49.797Z,19.90
2018-07-03T19:55:44.757Z,19.90
2018-07-03T20:00:39.468Z,19.70
2018-07-03T20:05:34.435Z,19.70
2018-07-03T20:10:29.103Z,19.60
2018-07-03T20:15:23.764Z,19.60
2018-07-03T20:20:18.376Z,19.40
2018-07-03T20:25:13.640Z,19.40
2018-07-03T20:30:08.327Z,19.30
2018-07-03T20:35:03.256Z,19.00
2018-07-03T20:39:57.882Z,18.90
2018-07-03T20:44:52.500Z,18.80
2018-07-03T20:49:47.185Z,18.80
2018-07-03T20:54:43.631Z,18.90
2018-07-03T20:59:38.234Z,18.90
2018-07-03T21:04:32.886Z,18.80
2018-07-03T21:09:27.485Z,18.60
2018-07-03T21:14:22.063Z,18.60
2018-07-03T21:19:21.224Z,18.50
2018-07-03T21:24:15.851Z,18.40
2018-07-03T21:29:10.477Z,18.30
2018-07-03T21:34:05.165Z,18.30
2018-07-03T21:38:59.805Z,18.30
2018-07-03T21:43:54.402Z,18.20
2018-07-03T21:48:49.061Z,18.20
2018-07-03T21:53:43.645Z,18.20
2018-07-03T21:58:38.228Z,18.20
2018-07-03T22:03:32.855Z,18.00
2018-07-03T22:08:27.496Z,17.90
2018-07-03T22:13:22.057Z,18.00
2018-07-03T22:18:16.611Z,17.90
2018-07-03T22:23:11.182Z,17.80
2018-07-03T22:28:05.847Z,17.90
2018-07-03T22:33:00.439Z,18.00
2018-07-03T22:37:55.074Z,18.00
2018-07-03T22:42:49.700Z,18.00
2018-07-03T22:47:44.283Z,18.10
2018-07-03T22:52:38.920Z,18.10
2018-07-03T22:57:33.506Z,18.10
2018-07-03T23:02:28.114Z,17.90
2018-07-03T23:07:22.724Z,18.00
2018-07-03T23:12:19.116Z,18.00
2018-07-03T23:17:13.734Z,17.80
2018-07-03T23:22:08.343Z,17.80
2018-07-03T23:27:02.968Z,17.80
2018-07-03T23:36:48.348Z,17.80
2018-07-03T23:41:42.940Z,17.70
2018-07-03T23:46:54.099Z,17.70
2018-07-03T23:52:05.257Z,17.60
2018-07-03T23:57:16.375Z,17.60
